sensor_id;sensor_type;location;lat;lon;timestamp;P1;durP1;ratioP1;P2;durP2;ratioP2
41275;SDS011;27010;47.718;12.912;2023-07-28T00:02:57;2.07;;;1.77;;
41275;SDS011;27010;47.718;12.912;2023-07-28T00:05:59;3.37;;;2.00;;
41275;SDS011;27010;47.718;12.912;2023-07-28T00:09:01;5.37;;;1.80;;
41275;SDS011;27010;47.718;12.912;2023-07-28T00:12:03;3.30;;;2.07;;
41275;SDS011;27010;47.718;12.912;2023-07-28T00:15:06;2.67;;;1.80;;
41275;SDS011;27010;47.718;12.912;2023-07-28T00:18:08;4.33;;;1.60;;
41275;SDS011;27010;47.718;12.912;2023-07-28T00:21:09;3.87;;;1.73;;
41275;SDS011;27010;47.718;12.912;2023-07-28T00:24:11;3.13;;;2.00;;
41275;SDS011;27010;47.718;12.912;2023-07-28T00:27:13;2.23;;;1.67;;
41275;SDS011;27010;47.718;12.912;2023-07-28T00:30:16;6.53;;;2.20;;
41275;SDS011;27010;47.718;12.912;2023-07-28T00:33:18;2.73;;;1.80;;
41275;SDS011;27010;47.718;12.912;2023-07-28T00:36:20;3.40;;;1.70;;
41275;SDS011;27010;47.718;12.912;2023-07-28T00:39:23;3.07;;;2.13;;
41275;SDS011;27010;47.718;12.912;2023-07-28T00:42:25;3.63;;;1.60;;
41275;SDS011;27010;47.718;12.912;2023-07-28T00:45:27;2.27;;;1.90;;
41275;SDS011;27010;47.718;12.912;2023-07-28T00:48:29;4.63;;;2.27;;
41275;SDS011;27010;47.718;12.912;2023-07-28T00:51:32;2.93;;;2.10;;
41275;SDS011;27010;47.718;12.912;2023-07-28T00:54:34;3.43;;;1.93;;
41275;SDS011;27010;47.718;12.912;2023-07-28T00:57:36;4.40;;;1.83;;
41275;SDS011;27010;47.718;12.912;2023-07-28T01:00:40;5.37;;;1.73;;
41275;SDS011;27010;47.718;12.912;2023-07-28T01:03:42;2.20;;;2.00;;
41275;SDS011;27010;47.718;12.912;2023-07-28T01:06:47;4.60;;;2.60;;
41275;SDS011;27010;47.718;12.912;2023-07-28T01:10:03;2.20;;;1.77;;
41275;SDS011;27010;47.718;12.912;2023-07-28T01:13:08;3.07;;;1.93;;
41275;SDS011;27010;47.718;12.912;2023-07-28T01:16:10;2.00;;;1.67;;
41275;SDS011;27010;47.718;12.912;2023-07-28T01:19:12;3.33;;;2.40;;
41275;SDS011;27010;47.718;12.912;2023-07-28T01:25:50;2.90;;;2.00;;
41275;SDS011;27010;47.718;12.912;2023-07-28T01:28:55;2.73;;;2.20;;
41275;SDS011;27010;47.718;12.912;2023-07-28T01:31:59;2.10;;;1.67;;
41275;SDS011;27010;47.718;12.912;2023-07-28T01:35:04;2.73;;;1.80;;
41275;SDS011;27010;47.718;12.912;2023-07-28T01:38:07;3.10;;;2.07;;
41275;SDS011;27010;47.718;12.912;2023-07-28T01:41:09;2.33;;;1.70;;
41275;SDS011;27010;47.718;12.912;2023-07-28T01:44:11;3.40;;;2.03;;
41275;SDS011;27010;47.718;12.912;2023-07-28T01:47:13;5.13;;;1.93;;
41275;SDS011;27010;47.718;12.912;2023-07-28T01:50:15;2.70;;;1.77;;
41275;SDS011;27010;47.718;12.912;2023-07-28T01:53:17;3.43;;;1.93;;
41275;SDS011;27010;47.718;12.912;2023-07-28T01:56:19;2.00;;;1.80;;
41275;SDS011;27010;47.718;12.912;2023-07-28T01:59:21;2.50;;;2.30;;
41275;SDS011;27010;47.718;12.912;2023-07-28T02:02:23;2.60;;;2.20;;
41275;SDS011;27010;47.718;12.912;2023-07-28T02:05:25;2.00;;;1.80;;
41275;SDS011;27010;47.718;12.912;2023-07-28T02:08:27;3.50;;;2.10;;
41275;SDS011;27010;47.718;12.912;2023-07-28T02:11:29;2.47;;;1.87;;
41275;SDS011;27010;47.718;12.912;2023-07-28T02:14:31;2.60;;;1.90;;
41275;SDS011;27010;47.718;12.912;2023-07-28T02:17:33;5.60;;;1.87;;
41275;SDS011;27010;47.718;12.912;2023-07-28T02:20:36;2.40;;;1.43;;
41275;SDS011;27010;47.718;12.912;2023-07-28T02:23:39;2.40;;;1.80;;
41275;SDS011;27010;47.718;12.912;2023-07-28T02:26:41;2.63;;;2.00;;
41275;SDS011;27010;47.718;12.912;2023-07-28T02:29:43;3.77;;;2.00;;
41275;SDS011;27010;47.718;12.912;2023-07-28T02:32:45;6.00;;;1.97;;
41275;SDS011;27010;47.718;12.912;2023-07-28T02:35:47;2.00;;;1.57;;
41275;SDS011;27010;47.718;12.912;2023-07-28T02:38:49;3.23;;;1.87;;
41275;SDS011;27010;47.718;12.912;2023-07-28T02:41:50;2.30;;;1.50;;
41275;SDS011;27010;47.718;12.912;2023-07-28T02:44:52;2.50;;;1.70;;
41275;SDS011;27010;47.718;12.912;2023-07-28T02:47:54;5.73;;;1.80;;
41275;SDS011;27010;47.718;12.912;2023-07-28T02:50:56;2.27;;;1.77;;
41275;SDS011;27010;47.718;12.912;2023-07-28T02:53:58;2.53;;;1.90;;
41275;SDS011;27010;47.718;12.912;2023-07-28T02:57:00;2.60;;;2.00;;
41275;SDS011;27010;47.718;12.912;2023-07-28T03:00:02;2.20;;;1.73;;
41275;SDS011;27010;47.718;12.912;2023-07-28T03:03:07;2.67;;;2.13;;
41275;SDS011;27010;47.718;12.912;2023-07-28T03:06:12;3.07;;;2.10;;
41275;SDS011;27010;47.718;12.912;2023-07-28T03:09:14;2.60;;;1.70;;
41275;SDS011;27010;47.718;12.912;2023-07-28T03:12:17;2.80;;;1.97;;
41275;SDS011;27010;47.718;12.912;2023-07-28T03:15:19;3.53;;;1.77;;
41275;SDS011;27010;47.718;12.912;2023-07-28T03:18:23;3.73;;;1.97;;
41275;SDS011;27010;47.718;12.912;2023-07-28T03:21:25;2.13;;;1.73;;
41275;SDS011;27010;47.718;12.912;2023-07-28T03:24:28;4.70;;;2.00;;
41275;SDS011;27010;47.718;12.912;2023-07-28T03:27:29;2.53;;;1.70;;
41275;SDS011;27010;47.718;12.912;2023-07-28T03:30:32;2.43;;;2.00;;
41275;SDS011;27010;47.718;12.912;2023-07-28T03:33:34;4.47;;;1.80;;
41275;SDS011;27010;47.718;12.912;2023-07-28T03:36:36;4.27;;;2.17;;
41275;SDS011;27010;47.718;12.912;2023-07-28T03:39:38;4.37;;;2.10;;
41275;SDS011;27010;47.718;12.912;2023-07-28T03:42:40;2.73;;;2.33;;
41275;SDS011;27010;47.718;12.912;2023-07-28T03:45:42;5.00;;;2.20;;
41275;SDS011;27010;47.718;12.912;2023-07-28T03:48:45;3.30;;;2.30;;
41275;SDS011;27010;47.718;12.912;2023-07-28T03:51:46;2.20;;;2.00;;
41275;SDS011;27010;47.718;12.912;2023-07-28T03:54:48;5.30;;;2.33;;
41275;SDS011;27010;47.718;12.912;2023-07-28T03:57:51;5.07;;;2.23;;
41275;SDS011;27010;47.718;12.912;2023-07-28T04:00:53;3.70;;;2.27;;
41275;SDS011;27010;47.718;12.912;2023-07-28T04:03:56;3.17;;;2.00;;
41275;SDS011;27010;47.718;12.912;2023-07-28T04:06:58;2.83;;;2.10;;
41275;SDS011;27010;47.718;12.912;2023-07-28T04:10:00;2.47;;;2.20;;
41275;SDS011;27010;47.718;12.912;2023-07-28T04:13:02;2.80;;;2.43;;
41275;SDS011;27010;47.718;12.912;2023-07-28T04:16:04;2.50;;;2.17;;
41275;SDS011;27010;47.718;12.912;2023-07-28T04:19:06;2.70;;;2.13;;
41275;SDS011;27010;47.718;12.912;2023-07-28T04:22:08;3.70;;;2.00;;
41275;SDS011;27010;47.718;12.912;2023-07-28T04:25:10;2.40;;;2.00;;
41275;SDS011;27010;47.718;12.912;2023-07-28T04:28:12;3.63;;;1.73;;
41275;SDS011;27010;47.718;12.912;2023-07-28T04:31:14;3.10;;;2.00;;
41275;SDS011;27010;47.718;12.912;2023-07-28T04:34:17;2.93;;;2.07;;
41275;SDS011;27010;47.718;12.912;2023-07-28T04:37:18;6.13;;;2.27;;
41275;SDS011;27010;47.718;12.912;2023-07-28T04:40:20;2.33;;;2.07;;
41275;SDS011;27010;47.718;12.912;2023-07-28T04:43:22;2.37;;;1.77;;
41275;SDS011;27010;47.718;12.912;2023-07-28T04:46:24;2.73;;;2.00;;
41275;SDS011;27010;47.718;12.912;2023-07-28T04:49:26;4.60;;;2.00;;
41275;SDS011;27010;47.718;12.912;2023-07-28T04:52:28;2.57;;;1.97;;
41275;SDS011;27010;47.718;12.912;2023-07-28T04:55:30;4.43;;;1.80;;
41275;SDS011;27010;47.718;12.912;2023-07-28T04:58:32;2.23;;;1.90;;
41275;SDS011;27010;47.718;12.912;2023-07-28T05:01:34;3.77;;;2.20;;
41275;SDS011;27010;47.718;12.912;2023-07-28T05:04:36;3.53;;;1.70;;
41275;SDS011;27010;47.718;12.912;2023-07-28T05:07:39;2.70;;;1.93;;
41275;SDS011;27010;47.718;12.912;2023-07-28T05:10:41;3.63;;;1.87;;
41275;SDS011;27010;47.718;12.912;2023-07-28T05:13:46;4.40;;;1.67;;
41275;SDS011;27010;47.718;12.912;2023-07-28T05:16:49;8.20;;;2.30;;
41275;SDS011;27010;47.718;12.912;2023-07-28T05:19:51;2.20;;;1.80;;
41275;SDS011;27010;47.718;12.912;2023-07-28T05:22:53;2.90;;;2.00;;
41275;SDS011;27010;47.718;12.912;2023-07-28T05:25:55;3.30;;;1.93;;
41275;SDS011;27010;47.718;12.912;2023-07-28T05:28:57;2.57;;;1.97;;
41275;SDS011;27010;47.718;12.912;2023-07-28T05:31:59;2.80;;;2.23;;
41275;SDS011;27010;47.718;12.912;2023-07-28T05:35:01;3.73;;;2.00;;
41275;SDS011;27010;47.718;12.912;2023-07-28T05:38:03;2.07;;;1.70;;
41275;SDS011;27010;47.718;12.912;2023-07-28T05:41:10;3.90;;;1.87;;
41275;SDS011;27010;47.718;12.912;2023-07-28T05:44:13;2.40;;;2.07;;
41275;SDS011;27010;47.718;12.912;2023-07-28T05:47:15;2.83;;;1.63;;
41275;SDS011;27010;47.718;12.912;2023-07-28T05:50:17;2.50;;;1.67;;
41275;SDS011;27010;47.718;12.912;2023-07-28T05:53:20;2.97;;;1.83;;
41275;SDS011;27010;47.718;12.912;2023-07-28T05:56:23;2.17;;;1.70;;
41275;SDS011;27010;47.718;12.912;2023-07-28T05:59:25;2.83;;;2.10;;
41275;SDS011;27010;47.718;12.912;2023-07-28T06:02:27;1.63;;;1.50;;
41275;SDS011;27010;47.718;12.912;2023-07-28T06:05:30;3.37;;;2.10;;
41275;SDS011;27010;47.718;12.912;2023-07-28T06:08:32;2.33;;;1.87;;
41275;SDS011;27010;47.718;12.912;2023-07-28T06:11:34;2.53;;;1.90;;
41275;SDS011;27010;47.718;12.912;2023-07-28T06:14:37;2.73;;;2.10;;
41275;SDS011;27010;47.718;12.912;2023-07-28T06:17:39;3.03;;;2.00;;
41275;SDS011;27010;47.718;12.912;2023-07-28T06:20:41;2.47;;;1.87;;
41275;SDS011;27010;47.718;12.912;2023-07-28T06:23:44;2.00;;;1.60;;
41275;SDS011;27010;47.718;12.912;2023-07-28T06:26:46;2.43;;;1.80;;
41275;SDS011;27010;47.718;12.912;2023-07-28T06:29:48;3.27;;;1.87;;
41275;SDS011;27010;47.718;12.912;2023-07-28T06:32:50;6.13;;;2.30;;
41275;SDS011;27010;47.718;12.912;2023-07-28T06:35:52;15.70;;;4.70;;
41275;SDS011;27010;47.718;12.912;2023-07-28T06:38:54;5.87;;;2.53;;
41275;SDS011;27010;47.718;12.912;2023-07-28T06:41:57;3.80;;;2.20;;
41275;SDS011;27010;47.718;12.912;2023-07-28T06:44:58;3.88;;;2.60;;
41275;SDS011;27010;47.718;12.912;2023-07-28T06:48:01;3.45;;;2.22;;
41275;SDS011;27010;47.718;12.912;2023-07-28T06:51:03;2.70;;;2.28;;
41275;SDS011;27010;47.718;12.912;2023-07-28T06:54:05;4.03;;;1.90;;
41275;SDS011;27010;47.718;12.912;2023-07-28T06:57:11;2.40;;;1.90;;
41275;SDS011;27010;47.718;12.912;2023-07-28T07:00:13;2.30;;;1.73;;
41275;SDS011;27010;47.718;12.912;2023-07-28T07:03:16;4.28;;;2.05;;
41275;SDS011;27010;47.718;12.912;2023-07-28T07:06:19;3.25;;;2.20;;
41275;SDS011;27010;47.718;12.912;2023-07-28T07:09:21;2.35;;;1.83;;
41275;SDS011;27010;47.718;12.912;2023-07-28T07:12:23;4.82;;;2.38;;
41275;SDS011;27010;47.718;12.912;2023-07-28T07:15:25;4.75;;;1.95;;
41275;SDS011;27010;47.718;12.912;2023-07-28T07:18:28;4.88;;;1.90;;
41275;SDS011;27010;47.718;12.912;2023-07-28T07:21:30;3.28;;;2.22;;
41275;SDS011;27010;47.718;12.912;2023-07-28T07:24:33;6.35;;;2.05;;
41275;SDS011;27010;47.718;12.912;2023-07-28T07:27:35;2.33;;;2.13;;
41275;SDS011;27010;47.718;12.912;2023-07-28T07:30:37;2.33;;;1.83;;
41275;SDS011;27010;47.718;12.912;2023-07-28T07:33:39;4.32;;;2.20;;
41275;SDS011;27010;47.718;12.912;2023-07-28T07:36:43;2.00;;;1.80;;
41275;SDS011;27010;47.718;12.912;2023-07-28T07:39:46;2.53;;;2.33;;
41275;SDS011;27010;47.718;12.912;2023-07-28T07:42:48;4.63;;;2.10;;
41275;SDS011;27010;47.718;12.912;2023-07-28T07:45:51;5.72;;;2.00;;
41275;SDS011;27010;47.718;12.912;2023-07-28T07:48:56;2.33;;;1.88;;
41275;SDS011;27010;47.718;12.912;2023-07-28T07:51:58;2.42;;;1.98;;
41275;SDS011;27010;47.718;12.912;2023-07-28T07:55:00;2.58;;;1.80;;
41275;SDS011;27010;47.718;12.912;2023-07-28T07:58:02;2.50;;;1.90;;
41275;SDS011;27010;47.718;12.912;2023-07-28T08:01:05;4.55;;;1.92;;
41275;SDS011;27010;47.718;12.912;2023-07-28T08:04:07;2.85;;;1.98;;
41275;SDS011;27010;47.718;12.912;2023-07-28T08:07:10;4.13;;;1.90;;
41275;SDS011;27010;47.718;12.912;2023-07-28T08:10:12;4.10;;;1.98;;
41275;SDS011;27010;47.718;12.912;2023-07-28T08:13:14;3.40;;;2.17;;
41275;SDS011;27010;47.718;12.912;2023-07-28T08:16:16;3.95;;;1.77;;
41275;SDS011;27010;47.718;12.912;2023-07-28T08:19:18;2.70;;;2.10;;
41275;SDS011;27010;47.718;12.912;2023-07-28T08:22:20;2.60;;;1.92;;
41275;SDS011;27010;47.718;12.912;2023-07-28T08:25:22;3.05;;;2.38;;
41275;SDS011;27010;47.718;12.912;2023-07-28T08:28:25;4.65;;;2.08;;
41275;SDS011;27010;47.718;12.912;2023-07-28T08:31:27;2.67;;;1.98;;
41275;SDS011;27010;47.718;12.912;2023-07-28T08:34:29;6.80;;;2.33;;
41275;SDS011;27010;47.718;12.912;2023-07-28T08:37:31;2.97;;;2.20;;
41275;SDS011;27010;47.718;12.912;2023-07-28T08:40:33;3.83;;;2.15;;
41275;SDS011;27010;47.718;12.912;2023-07-28T08:43:36;4.03;;;2.38;;
41275;SDS011;27010;47.718;12.912;2023-07-28T08:46:42;3.08;;;1.65;;
41275;SDS011;27010;47.718;12.912;2023-07-28T08:49:44;2.20;;;1.98;;
41275;SDS011;27010;47.718;12.912;2023-07-28T08:52:50;3.38;;;1.85;;
41275;SDS011;27010;47.718;12.912;2023-07-28T08:55:53;2.10;;;1.70;;
41275;SDS011;27010;47.718;12.912;2023-07-28T08:58:58;1.92;;;1.67;;
41275;SDS011;27010;47.718;12.912;2023-07-28T09:02:01;2.67;;;1.80;;
41275;SDS011;27010;47.718;12.912;2023-07-28T09:05:03;2.72;;;2.00;;
41275;SDS011;27010;47.718;12.912;2023-07-28T09:08:08;4.25;;;2.10;;
41275;SDS011;27010;47.718;12.912;2023-07-28T09:11:11;2.47;;;1.88;;
41275;SDS011;27010;47.718;12.912;2023-07-28T09:14:16;2.90;;;1.83;;
41275;SDS011;27010;47.718;12.912;2023-07-28T09:17:19;5.07;;;2.13;;
41275;SDS011;27010;47.718;12.912;2023-07-28T09:20:21;4.28;;;1.90;;
41275;SDS011;27010;47.718;12.912;2023-07-28T09:23:29;2.85;;;2.05;;
41275;SDS011;27010;47.718;12.912;2023-07-28T09:26:37;2.88;;;2.05;;
41275;SDS011;27010;47.718;12.912;2023-07-28T09:29:57;1.88;;;1.77;;
41275;SDS011;27010;47.718;12.912;2023-07-28T09:32:59;2.45;;;1.77;;
41275;SDS011;27010;47.718;12.912;2023-07-28T09:36:06;2.78;;;1.85;;
41275;SDS011;27010;47.718;12.912;2023-07-28T09:39:10;2.58;;;1.80;;
41275;SDS011;27010;47.718;12.912;2023-07-28T09:42:12;1.77;;;1.50;;
41275;SDS011;27010;47.718;12.912;2023-07-28T09:45:16;2.95;;;1.63;;
41275;SDS011;27010;47.718;12.912;2023-07-28T09:48:38;2.10;;;1.55;;
41275;SDS011;27010;47.718;12.912;2023-07-28T09:51:40;2.08;;;1.80;;
41275;SDS011;27010;47.718;12.912;2023-07-28T09:54:44;2.83;;;1.73;;
41275;SDS011;27010;47.718;12.912;2023-07-28T09:57:52;2.35;;;1.60;;
41275;SDS011;27010;47.718;12.912;2023-07-28T10:00:56;3.45;;;1.70;;
41275;SDS011;27010;47.718;12.912;2023-07-28T10:03:59;2.03;;;1.63;;
41275;SDS011;27010;47.718;12.912;2023-07-28T10:07:02;2.28;;;1.77;;
41275;SDS011;27010;47.718;12.912;2023-07-28T10:10:06;3.00;;;2.33;;
41275;SDS011;27010;47.718;12.912;2023-07-28T10:13:18;3.60;;;2.00;;
41275;SDS011;27010;47.718;12.912;2023-07-28T10:19:53;2.90;;;2.10;;
41275;SDS011;27010;47.718;12.912;2023-07-28T10:23:05;2.75;;;2.10;;
41275;SDS011;27010;47.718;12.912;2023-07-28T10:26:09;1.75;;;1.65;;
41275;SDS011;27010;47.718;12.912;2023-07-28T10:29:12;2.13;;;1.55;;
41275;SDS011;27010;47.718;12.912;2023-07-28T10:32:24;2.42;;;1.80;;
41275;SDS011;27010;47.718;12.912;2023-07-28T10:35:29;1.98;;;1.77;;
41275;SDS011;27010;47.718;12.912;2023-07-28T10:38:34;2.53;;;2.03;;
41275;SDS011;27010;47.718;12.912;2023-07-28T10:41:38;2.45;;;2.00;;
41275;SDS011;27010;47.718;12.912;2023-07-28T10:44:40;2.20;;;2.00;;
41275;SDS011;27010;47.718;12.912;2023-07-28T10:47:42;3.33;;;1.90;;
41275;SDS011;27010;47.718;12.912;2023-07-28T10:50:45;6.00;;;2.15;;
41275;SDS011;27010;47.718;12.912;2023-07-28T10:53:49;2.30;;;2.10;;
41275;SDS011;27010;47.718;12.912;2023-07-28T10:56:52;3.45;;;1.90;;
41275;SDS011;27010;47.718;12.912;2023-07-28T10:59:54;2.90;;;2.10;;
41275;SDS011;27010;47.718;12.912;2023-07-28T11:03:02;2.45;;;1.80;;
41275;SDS011;27010;47.718;12.912;2023-07-28T11:06:05;2.20;;;2.00;;
41275;SDS011;27010;47.718;12.912;2023-07-28T11:09:07;2.10;;;1.90;;
41275;SDS011;27010;47.718;12.912;2023-07-28T11:12:11;2.13;;;1.92;;
41275;SDS011;27010;47.718;12.912;2023-07-28T11:15:14;4.63;;;2.17;;
41275;SDS011;27010;47.718;12.912;2023-07-28T11:18:17;2.40;;;2.00;;
41275;SDS011;27010;47.718;12.912;2023-07-28T11:21:21;2.65;;;1.80;;
41275;SDS011;27010;47.718;12.912;2023-07-28T11:24:23;5.75;;;2.03;;
41275;SDS011;27010;47.718;12.912;2023-07-28T11:27:27;10.15;;;1.83;;
41275;SDS011;27010;47.718;12.912;2023-07-28T11:30:29;2.67;;;1.90;;
41275;SDS011;27010;47.718;12.912;2023-07-28T11:33:32;3.17;;;2.33;;
41275;SDS011;27010;47.718;12.912;2023-07-28T11:36:34;3.65;;;1.80;;
41275;SDS011;27010;47.718;12.912;2023-07-28T11:39:36;2.05;;;1.80;;
41275;SDS011;27010;47.718;12.912;2023-07-28T11:42:39;2.10;;;1.90;;
41275;SDS011;27010;47.718;12.912;2023-07-28T11:45:42;2.65;;;1.83;;
41275;SDS011;27010;47.718;12.912;2023-07-28T11:48:44;3.45;;;1.90;;
41275;SDS011;27010;47.718;12.912;2023-07-28T11:51:49;2.75;;;2.40;;
41275;SDS011;27010;47.718;12.912;2023-07-28T11:54:53;5.07;;;2.05;;
41275;SDS011;27010;47.718;12.912;2023-07-28T11:57:55;2.40;;;2.00;;
41275;SDS011;27010;47.718;12.912;2023-07-28T12:00:57;2.30;;;1.90;;
41275;SDS011;27010;47.718;12.912;2023-07-28T12:04:18;2.10;;;1.90;;
41275;SDS011;27010;47.718;12.912;2023-07-28T12:07:27;2.38;;;2.13;;
41275;SDS011;27010;47.718;12.912;2023-07-28T12:10:31;2.33;;;2.03;;
41275;SDS011;27010;47.718;12.912;2023-07-28T12:13:46;5.10;;;2.25;;
41275;SDS011;27010;47.718;12.912;2023-07-28T12:16:52;2.40;;;2.08;;
41275;SDS011;27010;47.718;12.912;2023-07-28T12:20:08;2.20;;;2.00;;
41275;SDS011;27010;47.718;12.912;2023-07-28T12:23:22;2.03;;;1.83;;
41275;SDS011;27010;47.718;12.912;2023-07-28T12:26:27;3.03;;;2.00;;
41275;SDS011;27010;47.718;12.912;2023-07-28T12:29:30;4.10;;;2.10;;
41275;SDS011;27010;47.718;12.912;2023-07-28T12:32:32;2.80;;;1.92;;
41275;SDS011;27010;47.718;12.912;2023-07-28T12:35:40;2.55;;;2.08;;
41275;SDS011;27010;47.718;12.912;2023-07-28T12:38:46;3.60;;;1.83;;
41275;SDS011;27010;47.718;12.912;2023-07-28T12:41:48;1.98;;;1.75;;
41275;SDS011;27010;47.718;12.912;2023-07-28T12:45:11;2.67;;;2.30;;
41275;SDS011;27010;47.718;12.912;2023-07-28T12:48:17;2.22;;;2.03;;
41275;SDS011;27010;47.718;12.912;2023-07-28T12:51:21;4.50;;;1.90;;
41275;SDS011;27010;47.718;12.912;2023-07-28T12:54:26;2.90;;;2.30;;
41275;SDS011;27010;47.718;12.912;2023-07-28T12:57:28;5.97;;;2.28;;
41275;SDS011;27010;47.718;12.912;2023-07-28T13:00:30;2.83;;;2.53;;
41275;SDS011;27010;47.718;12.912;2023-07-28T13:03:35;2.42;;;2.13;;
41275;SDS011;27010;47.718;12.912;2023-07-28T13:06:37;2.95;;;2.20;;
41275;SDS011;27010;47.718;12.912;2023-07-28T13:09:40;2.67;;;2.20;;
41275;SDS011;27010;47.718;12.912;2023-07-28T13:12:43;4.53;;;2.33;;
41275;SDS011;27010;47.718;12.912;2023-07-28T13:15:48;2.78;;;2.03;;
41275;SDS011;27010;47.718;12.912;2023-07-28T13:18:50;2.92;;;2.47;;
41275;SDS011;27010;47.718;12.912;2023-07-28T13:21:53;2.10;;;1.90;;
41275;SDS011;27010;47.718;12.912;2023-07-28T13:24:55;4.35;;;2.80;;
41275;SDS011;27010;47.718;12.912;2023-07-28T13:27:57;3.10;;;2.00;;
41275;SDS011;27010;47.718;12.912;2023-07-28T13:30:59;4.07;;;2.45;;
41275;SDS011;27010;47.718;12.912;2023-07-28T13:34:01;2.03;;;1.83;;
41275;SDS011;27010;47.718;12.912;2023-07-28T13:37:04;2.88;;;1.92;;
41275;SDS011;27010;47.718;12.912;2023-07-28T13:40:06;2.28;;;2.08;;
41275;SDS011;27010;47.718;12.912;2023-07-28T13:43:13;2.97;;;2.03;;
41275;SDS011;27010;47.718;12.912;2023-07-28T13:46:18;4.63;;;2.22;;
41275;SDS011;27010;47.718;12.912;2023-07-28T13:49:20;2.67;;;2.10;;
41275;SDS011;27010;47.718;12.912;2023-07-28T13:52:22;3.35;;;2.40;;
41275;SDS011;27010;47.718;12.912;2023-07-28T13:55:25;3.38;;;2.20;;
41275;SDS011;27010;47.718;12.912;2023-07-28T13:58:29;2.60;;;2.10;;
41275;SDS011;27010;47.718;12.912;2023-07-28T14:01:31;2.72;;;2.13;;
41275;SDS011;27010;47.718;12.912;2023-07-28T14:04:35;1.92;;;1.73;;
41275;SDS011;27010;47.718;12.912;2023-07-28T14:07:37;4.20;;;2.00;;
41275;SDS011;27010;47.718;12.912;2023-07-28T14:10:43;3.95;;;2.15;;
41275;SDS011;27010;47.718;12.912;2023-07-28T14:13:46;2.88;;;2.55;;
41275;SDS011;27010;47.718;12.912;2023-07-28T14:16:48;2.70;;;1.98;;
41275;SDS011;27010;47.718;12.912;2023-07-28T14:19:50;2.72;;;2.17;;
41275;SDS011;27010;47.718;12.912;2023-07-28T14:22:52;3.15;;;2.38;;
41275;SDS011;27010;47.718;12.912;2023-07-28T14:25:54;2.70;;;2.10;;
41275;SDS011;27010;47.718;12.912;2023-07-28T14:28:56;2.60;;;2.40;;
41275;SDS011;27010;47.718;12.912;2023-07-28T14:31:58;2.97;;;2.03;;
41275;SDS011;27010;47.718;12.912;2023-07-28T14:35:00;3.03;;;2.35;;
41275;SDS011;27010;47.718;12.912;2023-07-28T14:38:02;2.45;;;2.25;;
41275;SDS011;27010;47.718;12.912;2023-07-28T14:41:04;2.72;;;2.40;;
41275;SDS011;27010;47.718;12.912;2023-07-28T14:44:06;2.60;;;1.98;;
41275;SDS011;27010;47.718;12.912;2023-07-28T14:47:08;2.40;;;2.20;;
41275;SDS011;27010;47.718;12.912;2023-07-28T14:50:10;2.42;;;1.98;;
41275;SDS011;27010;47.718;12.912;2023-07-28T14:53:28;2.67;;;2.03;;
41275;SDS011;27010;47.718;12.912;2023-07-28T14:56:31;2.47;;;2.28;;
41275;SDS011;27010;47.718;12.912;2023-07-28T14:59:33;3.08;;;2.40;;
41275;SDS011;27010;47.718;12.912;2023-07-28T15:02:34;3.53;;;2.10;;
41275;SDS011;27010;47.718;12.912;2023-07-28T15:05:38;3.80;;;2.30;;
41275;SDS011;27010;47.718;12.912;2023-07-28T15:08:40;3.00;;;2.38;;
41275;SDS011;27010;47.718;12.912;2023-07-28T15:11:43;2.75;;;2.30;;
41275;SDS011;27010;47.718;12.912;2023-07-28T15:14:46;3.90;;;2.58;;
41275;SDS011;27010;47.718;12.912;2023-07-28T15:17:47;4.55;;;2.55;;
41275;SDS011;27010;47.718;12.912;2023-07-28T15:20:50;3.00;;;2.25;;
41275;SDS011;27010;47.718;12.912;2023-07-28T15:23:54;2.58;;;2.05;;
41275;SDS011;27010;47.718;12.912;2023-07-28T15:26:57;4.30;;;3.22;;
41275;SDS011;27010;47.718;12.912;2023-07-28T15:29:59;5.63;;;3.40;;
41275;SDS011;27010;47.718;12.912;2023-07-28T15:33:01;5.05;;;3.40;;
41275;SDS011;27010;47.718;12.912;2023-07-28T15:36:03;3.47;;;3.00;;
41275;SDS011;27010;47.718;12.912;2023-07-28T15:39:06;3.58;;;2.75;;
41275;SDS011;27010;47.718;12.912;2023-07-28T15:42:08;5.93;;;2.75;;
41275;SDS011;27010;47.718;12.912;2023-07-28T15:45:10;4.18;;;3.22;;
41275;SDS011;27010;47.718;12.912;2023-07-28T15:48:12;3.42;;;2.65;;
41275;SDS011;27010;47.718;12.912;2023-07-28T15:51:14;3.00;;;2.63;;
41275;SDS011;27010;47.718;12.912;2023-07-28T15:54:17;3.83;;;2.70;;
41275;SDS011;27010;47.718;12.912;2023-07-28T15:57:19;3.58;;;3.15;;
41275;SDS011;27010;47.718;12.912;2023-07-28T16:00:21;3.08;;;2.78;;
41275;SDS011;27010;47.718;12.912;2023-07-28T16:03:23;2.65;;;2.30;;
41275;SDS011;27010;47.718;12.912;2023-07-28T16:06:25;2.83;;;2.40;;
41275;SDS011;27010;47.718;12.912;2023-07-28T16:09:27;3.55;;;2.30;;
41275;SDS011;27010;47.718;12.912;2023-07-28T16:12:29;3.60;;;2.20;;
41275;SDS011;27010;47.718;12.912;2023-07-28T16:15:31;3.10;;;2.47;;
41275;SDS011;27010;47.718;12.912;2023-07-28T16:18:33;3.42;;;2.35;;
41275;SDS011;27010;47.718;12.912;2023-07-28T16:21:35;3.25;;;2.40;;
41275;SDS011;27010;47.718;12.912;2023-07-28T16:24:37;4.15;;;2.40;;
41275;SDS011;27010;47.718;12.912;2023-07-28T16:27:39;2.15;;;1.90;;
41275;SDS011;27010;47.718;12.912;2023-07-28T16:30:41;3.33;;;2.40;;
41275;SDS011;27010;47.718;12.912;2023-07-28T16:33:47;2.90;;;2.30;;
41275;SDS011;27010;47.718;12.912;2023-07-28T16:36:49;7.47;;;6.22;;
41275;SDS011;27010;47.718;12.912;2023-07-28T16:39:51;11.73;;;9.77;;
41275;SDS011;27010;47.718;12.912;2023-07-28T16:42:53;19.30;;;15.90;;
41275;SDS011;27010;47.718;12.912;2023-07-28T16:45:55;7.32;;;4.28;;
41275;SDS011;27010;47.718;12.912;2023-07-28T16:48:57;3.67;;;3.03;;
41275;SDS011;27010;47.718;12.912;2023-07-28T16:52:01;3.10;;;2.50;;
41275;SDS011;27010;47.718;12.912;2023-07-28T16:55:03;3.00;;;2.15;;
41275;SDS011;27010;47.718;12.912;2023-07-28T16:58:05;2.83;;;2.47;;
41275;SDS011;27010;47.718;12.912;2023-07-28T17:01:07;4.85;;;2.38;;
41275;SDS011;27010;47.718;12.912;2023-07-28T17:04:09;2.60;;;2.30;;
41275;SDS011;27010;47.718;12.912;2023-07-28T17:07:11;3.40;;;2.15;;
41275;SDS011;27010;47.718;12.912;2023-07-28T17:10:13;2.35;;;2.05;;
41275;SDS011;27010;47.718;12.912;2023-07-28T17:13:17;2.80;;;2.10;;
41275;SDS011;27010;47.718;12.912;2023-07-28T17:16:21;2.60;;;2.05;;
41275;SDS011;27010;47.718;12.912;2023-07-28T17:19:23;4.35;;;2.58;;
41275;SDS011;27010;47.718;12.912;2023-07-28T17:22:26;3.00;;;2.60;;
41275;SDS011;27010;47.718;12.912;2023-07-28T17:25:28;4.43;;;2.30;;
41275;SDS011;27010;47.718;12.912;2023-07-28T17:28:31;4.53;;;2.70;;
41275;SDS011;27010;47.718;12.912;2023-07-28T17:31:33;4.35;;;3.40;;
41275;SDS011;27010;47.718;12.912;2023-07-28T17:34:36;4.55;;;2.58;;
41275;SDS011;27010;47.718;12.912;2023-07-28T17:37:38;3.88;;;2.50;;
41275;SDS011;27010;47.718;12.912;2023-07-28T17:40:40;5.28;;;2.65;;
41275;SDS011;27010;47.718;12.912;2023-07-28T17:43:42;3.28;;;2.30;;
41275;SDS011;27010;47.718;12.912;2023-07-28T17:46:47;2.42;;;2.22;;
41275;SDS011;27010;47.718;12.912;2023-07-28T17:49:49;3.85;;;2.58;;
41275;SDS011;27010;47.718;12.912;2023-07-28T17:52:51;3.58;;;2.95;;
41275;SDS011;27010;47.718;12.912;2023-07-28T17:55:53;2.83;;;2.47;;
41275;SDS011;27010;47.718;12.912;2023-07-28T17:58:56;3.92;;;2.40;;
41275;SDS011;27010;47.718;12.912;2023-07-28T18:01:58;4.70;;;2.30;;
41275;SDS011;27010;47.718;12.912;2023-07-28T18:05:00;4.28;;;2.50;;
41275;SDS011;27010;47.718;12.912;2023-07-28T18:08:03;5.00;;;2.72;;
41275;SDS011;27010;47.718;12.912;2023-07-28T18:11:10;4.47;;;2.50;;
41275;SDS011;27010;47.718;12.912;2023-07-28T18:14:12;4.50;;;2.50;;